Terminal Aerodrome Forecast
Issued by NWS Wilmington, NC

Home | Current Version | Previous Version | Text Only | Print | Product List | Glossary On
Versions: 1 2 3 4 5 6 7 8 9 10 11 12 13 14 15 16 17 18 19
956
FTUS42 KILM 252320
TAFMYR
TAF
KMYR 252320Z 2600/2624 01010KT P6SM BKN040
      TEMPO 2604/2608 BKN020
     FM260800 35011KT P6SM BKN010
     FM261700 35013KT P6SM BKN100
     FM262200 35011KT P6SM SCT120=

USA.gov is the U.S. government's official web portal to all federal, state and local government web resources and services.